Smithville, MS

5:24 AM CDT on July 25, 2014 (GMT -0500)
Tupelo Regional (KTUP) Elev 361 ft | 34.26 °N, 88.77 °W | Change Station

Current weather conditions updated 31 minutes ago

Clear
Clear
63 °F
Feels Like 63 °F
N
4
Wind Variable Wind from North

Today is forecast to be Warmer than yesterday.

Today
High -- | Low -- °F
--% Chance of Precip.
Yesterday
High -- | Low -- °F
Precip. -- in
5:59 AM 7:59 PM
Waning Crescent, 2% visible
Pressure 30.01 in
Visibility 10.0 miles
Clouds Clear
Dew Point 60 °F
Humidity 90%
Rainfall 0.00 in
Snow Depth Not available.
UV 0 out of 12
Pollen 3.90 out of 12
Air Quality Not available.
Flu Activity Not available.
METAR KTUP 250953Z 01003KT 10SM CLR 17/16 A3002 RMK AO2 SLP161 T01720156

More Conditions Fewer Conditions

Pressure 30.01 in
Visibility 10.0 miles
Clouds Clear
Dew Point 60 °F
Humidity 90%
Rainfall 0.00 in
Snow Depth Not available.
UV 0 out of 12
Pollen 3.90 out of 12
Air Quality Not available.
Flu Activity Not available.
METAR KTUP 250953Z 01003KT 10SM CLR 17/16 A3002 RMK AO2 SLP161 T01720156

More Conditions Fewer Conditions

10-Day Weather Forecast

Almanac

Astronomy

Jul. 25, 2014 Rise Set
Actual Time 5:59 AM CDT 7:59 PM CDT
Civil Twilight 5:31 AM CDT 8:27 PM CDT
Nautical Twilight 4:58 AM CDT 9:01 PM CDT
Astronomical Twilight 4:21 AM CDT 9:37 PM CDT
Moon 4:57 AM CDT 6:59 PM CDT
Length of Visible Light 14h 55m
Length of Day
13h 59m
Tomorrow will be 1m 24s shorter.
Waning Crescent, 2% of the Moon is Illuminated
Today
Waning Crescent
Jul 26
New
Aug 3
First Quarter
Aug 10
Full
Aug 17
Last Quarter

Today's Extremes

State Highs State Lows

Community

WunderPhotos

Upload Photos

1,737,277 photos uploaded!

Nearby

Snow Depth

Station Depth Elevation
No new snow has been reported.

Earthquake Activity

City Distance Mag. Time & Date
No recent earthquake activity has been reported nearby.
Minimum magnitude displayed is 2.5.

Coastal Water Temperatures

Place Temperature
No Stations Reporting

Nearby Weather Stations

Station Location Temp. Dew Point Humidity Wind Precip. Elev Updated Type
Shannon, MS, Shannon, MS 62.8 °F 56 °F 79% NE  at  0.0 mph - / hr 292 ft 5:11 AM CDT Normal
Vernon Alabama, Sulligent, AL 61.5 °F 60 °F 95% NW  at  0.0 mph 0.00 in / hr 372 ft 5:13 AM CDT Normal
Lee Acres, Tupelo, MS 63.0 °F 62 °F 97% NNW  at  0.0 mph 0.00 in / hr 340 ft 5:22 AM CDT Rapid Fire

Show More Stations Show Fewer Stations